createdAt,value
2023-03-29T00:02:19.426Z,67.76
2023-03-29T00:04:46.921Z,67.35
2023-03-29T00:07:14.022Z,67.56
2023-03-29T00:09:41.439Z,68.63
2023-03-29T00:12:08.411Z,68.12
2023-03-29T00:14:35.358Z,68.75
2023-03-29T00:17:02.379Z,68.71
2023-03-29T00:19:35.403Z,69.30
2023-03-29T00:22:05.757Z,69.27
2023-03-29T00:24:32.736Z,69.22
2023-03-29T00:26:59.652Z,69.55
2023-03-29T00:29:26.732Z,70.22
2023-03-29T00:31:54.310Z,70.27
2023-03-29T00:34:26.205Z,69.75
2023-03-29T00:36:57.908Z,69.68
2023-03-29T00:39:27.863Z,69.39
2023-03-29T00:41:55.922Z,69.68
2023-03-29T00:45:04.795Z,69.55
2023-03-29T00:47:46.131Z,70.01
2023-03-29T00:50:54.283Z,70.08
2023-03-29T00:53:48.284Z,70.39
2023-03-29T00:56:26.146Z,70.13
2023-03-29T00:59:23.160Z,70.53
2023-03-29T01:02:05.250Z,69.46
2023-03-29T01:04:47.525Z,70.04
2023-03-29T01:07:35.957Z,70.50
2023-03-29T01:10:18.956Z,70.43
2023-03-29T01:12:53.490Z,71.47
2023-03-29T01:15:27.675Z,71.95
2023-03-29T01:17:58.050Z,71.75
2023-03-29T01:20:50.984Z,71.80
2023-03-29T01:23:51.020Z,71.86
2023-03-29T01:26:51.073Z,71.53
2023-03-29T01:29:39.335Z,72.07
2023-03-29T01:32:16.455Z,72.28
2023-03-29T01:34:57.607Z,72.36
2023-03-29T01:37:38.392Z,72.70
2023-03-29T01:40:06.265Z,72.21
2023-03-29T01:43:09.440Z,72.68
2023-03-29T01:45:51.722Z,72.69
2023-03-29T01:48:32.236Z,72.30
2023-03-29T01:51:14.400Z,72.59
2023-03-29T01:53:57.518Z,72.35
2023-03-29T01:56:29.105Z,71.88
2023-03-29T01:59:07.570Z,71.47
2023-03-29T02:01:49.005Z,71.63
2023-03-29T02:04:22.721Z,71.21
2023-03-29T02:06:54.074Z,71.48
2023-03-29T02:09:22.370Z,70.96
2023-03-29T02:11:51.414Z,71.15
2023-03-29T02:14:18.400Z,70.58
2023-03-29T02:16:46.243Z,71.03
2023-03-29T02:19:15.234Z,70.76
2023-03-29T02:22:05.342Z,70.61
2023-03-29T02:24:36.458Z,70.38
2023-03-29T02:27:04.635Z,70.78
2023-03-29T02:29:31.634Z,70.92
2023-03-29T02:32:02.022Z,70.70
2023-03-29T02:34:47.621Z,70.97
2023-03-29T02:37:18.801Z,71.22
2023-03-29T02:39:49.678Z,71.10
2023-03-29T02:42:20.295Z,71.08
2023-03-29T02:44:52.547Z,71.48
2023-03-29T02:47:35.732Z,71.76
2023-03-29T02:50:03.269Z,71.65
2023-03-29T02:52:44.012Z,71.15
2023-03-29T02:55:17.157Z,71.36
2023-03-29T02:57:44.133Z,71.53
2023-03-29T03:00:14.528Z,71.40
2023-03-29T03:02:41.783Z,71.59
2023-03-29T03:05:10.192Z,71.53
2023-03-29T03:07:37.325Z,71.57
2023-03-29T03:10:05.026Z,71.87
2023-03-29T03:12:32.129Z,71.72
2023-03-29T03:14:59.514Z,71.57
2023-03-29T03:17:26.742Z,71.69
2023-03-29T03:19:53.817Z,71.51
2023-03-29T03:22:20.865Z,71.49
2023-03-29T03:24:49.155Z,71.30
2023-03-29T03:27:16.911Z,71.70
2023-03-29T03:29:43.993Z,71.62
2023-03-29T03:32:37.388Z,71.10
2023-03-29T03:35:26.991Z,71.39
2023-03-29T03:37:53.932Z,71.15
2023-03-29T03:40:20.957Z,71.17
2023-03-29T03:42:48.409Z,70.91
2023-03-29T03:45:15.676Z,71.18
2023-03-29T03:48:01.098Z,70.92
2023-03-29T03:50:56.991Z,70.50
2023-03-29T03:53:27.130Z,70.77
2023-03-29T03:56:20.478Z,70.92
2023-03-29T03:58:57.040Z,71.06
2023-03-29T04:01:24.484Z,70.81
2023-03-29T04:04:01.539Z,70.74
2023-03-29T04:06:30.534Z,70.11
2023-03-29T04:09:24.238Z,70.44
2023-03-29T04:12:04.260Z,70.59
2023-03-29T04:14:32.147Z,70.34
2023-03-29T04:17:06.001Z,70.27
2023-03-29T04:19:51.705Z,70.21
2023-03-29T04:22:18.990Z,70.44
2023-03-29T04:24:46.097Z,70.84
2023-03-29T04:27:40.363Z,70.66
2023-03-29T04:30:19.062Z,70.85
2023-03-29T04:33:04.646Z,70.95
2023-03-29T04:35:32.379Z,70.77
2023-03-29T04:37:59.413Z,70.86
2023-03-29T04:40:26.829Z,71.10
2023-03-29T04:43:06.610Z,71.14
2023-03-29T04:45:34.422Z,70.76
2023-03-29T04:48:10.712Z,70.71
2023-03-29T04:50:41.466Z,70.58
2023-03-29T04:53:08.457Z,70.19
2023-03-29T04:55:35.692Z,70.94
2023-03-29T04:58:03.210Z,70.77
2023-03-29T05:00:32.578Z,70.81
2023-03-29T05:03:28.720Z,70.86
2023-03-29T05:06:07.121Z,70.50
2023-03-29T05:08:39.576Z,70.86
2023-03-29T05:11:19.646Z,70.45
2023-03-29T05:13:47.374Z,70.55
2023-03-29T05:16:15.736Z,70.48
2023-03-29T05:18:43.017Z,70.71
2023-03-29T05:21:11.002Z,70.61
2023-03-29T05:23:41.307Z,70.48
2023-03-29T05:26:17.343Z,70.82
2023-03-29T05:28:51.442Z,70.60
2023-03-29T05:31:18.701Z,70.16
2023-03-29T05:33:50.716Z,70.33
2023-03-29T05:36:19.243Z,70.44
2023-03-29T05:38:49.724Z,70.48
2023-03-29T05:41:17.899Z,70.57
2023-03-29T05:44:13.828Z,70.50
2023-03-29T05:46:43.194Z,70.48
2023-03-29T05:49:15.009Z,70.83
2023-03-29T05:51:56.893Z,70.75
2023-03-29T05:54:25.726Z,70.68
2023-03-29T05:56:52.740Z,70.44
2023-03-29T05:59:20.081Z,70.66
2023-03-29T06:01:47.883Z,70.95
2023-03-29T06:04:18.912Z,71.09
2023-03-29T06:06:56.506Z,70.92
2023-03-29T06:09:23.891Z,71.61
2023-03-29T06:11:59.413Z,71.70
2023-03-29T06:14:43.931Z,71.92
2023-03-29T06:17:20.256Z,71.88
2023-03-29T06:19:47.845Z,71.98
2023-03-29T06:22:16.010Z,71.81
2023-03-29T06:24:42.970Z,72.13
2023-03-29T06:27:20.388Z,71.75
2023-03-29T06:29:48.158Z,71.50
2023-03-29T06:32:15.905Z,71.47
2023-03-29T06:34:48.315Z,72.20
2023-03-29T06:37:29.152Z,71.85
2023-03-29T06:40:10.011Z,71.87
2023-03-29T06:42:45.304Z,71.94
2023-03-29T06:45:45.359Z,71.46
2023-03-29T06:48:21.233Z,71.91
2023-03-29T06:50:49.259Z,71.99
2023-03-29T06:53:17.424Z,71.83
2023-03-29T06:55:53.046Z,72.00
2023-03-29T06:58:39.263Z,71.73
2023-03-29T07:01:19.107Z,71.76
2023-03-29T07:03:50.733Z,72.08
2023-03-29T07:06:23.451Z,71.78
2023-03-29T07:08:52.212Z,71.80
2023-03-29T07:11:37.551Z,71.79
2023-03-29T07:14:22.056Z,71.66
2023-03-29T07:16:49.490Z,71.60
2023-03-29T07:19:27.638Z,72.11
2023-03-29T07:21:55.085Z,71.83
2023-03-29T07:24:28.765Z,71.76
2023-03-29T07:27:04.106Z,72.14
2023-03-29T07:29:32.749Z,71.78
2023-03-29T07:32:00.100Z,71.80
2023-03-29T07:34:36.866Z,71.72
2023-03-29T07:37:07.058Z,71.84
2023-03-29T07:39:35.281Z,71.81
2023-03-29T07:42:31.763Z,71.93
2023-03-29T07:44:59.790Z,72.19
2023-03-29T07:47:32.992Z,72.32
2023-03-29T07:50:00.253Z,72.47
2023-03-29T07:52:28.545Z,72.28
2023-03-29T07:54:56.368Z,72.40
2023-03-29T07:57:54.087Z,71.90
2023-03-29T08:00:22.259Z,72.14
2023-03-29T08:03:07.272Z,72.07
2023-03-29T08:05:41.470Z,72.20
2023-03-29T08:08:14.138Z,72.00
2023-03-29T08:11:10.302Z,72.17
2023-03-29T08:13:54.191Z,72.55
2023-03-29T08:16:27.216Z,72.64
2023-03-29T08:19:07.070Z,72.52
2023-03-29T08:21:49.084Z,72.67
2023-03-29T08:24:20.430Z,72.18
2023-03-29T08:26:51.279Z,72.59
2023-03-29T08:29:20.178Z,72.13
2023-03-29T08:31:47.216Z,72.33
2023-03-29T08:34:14.315Z,72.06
2023-03-29T08:37:00.012Z,72.29
2023-03-29T08:39:36.371Z,72.35
2023-03-29T08:43:09.082Z,71.60
2023-03-29T08:46:17.449Z,71.79
2023-03-29T08:49:05.294Z,71.68
2023-03-29T08:51:40.563Z,72.33
2023-03-29T08:54:19.446Z,71.99
2023-03-29T08:57:19.298Z,72.37
2023-03-29T08:59:54.002Z,72.38
2023-03-29T09:02:30.546Z,72.80
2023-03-29T09:05:22.498Z,72.67
2023-03-29T09:07:57.982Z,72.65
2023-03-29T09:10:39.463Z,72.72
2023-03-29T09:13:22.766Z,72.60
2023-03-29T09:16:18.531Z,72.16
2023-03-29T09:19:17.564Z,72.33
2023-03-29T09:22:05.590Z,72.68
2023-03-29T09:25:13.891Z,72.94
2023-03-29T09:28:19.160Z,72.89
2023-03-29T09:31:16.596Z,72.83
2023-03-29T09:34:14.377Z,73.28
2023-03-29T09:37:03.689Z,73.67
2023-03-29T09:39:30.961Z,73.93
2023-03-29T09:42:09.119Z,73.59
2023-03-29T09:45:01.916Z,73.81
2023-03-29T09:47:51.528Z,74.35
2023-03-29T09:50:33.963Z,74.00
2023-03-29T09:53:05.357Z,74.39
2023-03-29T09:55:39.564Z,74.57
2023-03-29T09:58:23.187Z,74.23
2023-03-29T10:00:53.103Z,74.21
2023-03-29T10:03:24.549Z,74.27
2023-03-29T10:06:06.998Z,74.75
2023-03-29T10:08:42.244Z,74.01
2023-03-29T10:11:30.706Z,73.30
2023-03-29T10:14:07.105Z,74.20
2023-03-29T10:16:39.233Z,74.24
2023-03-29T10:19:19.173Z,74.51
2023-03-29T10:21:52.772Z,74.89
2023-03-29T10:24:22.483Z,74.41
2023-03-29T10:26:57.211Z,71.24
2023-03-29T10:29:27.601Z,73.46
2023-03-29T10:31:55.086Z,73.83
2023-03-29T10:34:25.997Z,73.12
2023-03-29T10:37:00.959Z,72.79
2023-03-29T10:39:34.027Z,73.34
2023-03-29T10:42:04.045Z,70.24
2023-03-29T10:44:36.456Z,71.48
2023-03-29T10:47:16.698Z,73.43
2023-03-29T10:49:50.838Z,73.24
2023-03-29T10:52:18.598Z,72.78
2023-03-29T10:54:47.282Z,72.26
2023-03-29T10:57:27.078Z,71.27
2023-03-29T11:00:23.482Z,68.87
2023-03-29T11:03:43.282Z,72.87
2023-03-29T11:06:39.575Z,71.24
2023-03-29T11:09:42.918Z,72.94
2023-03-29T11:12:21.893Z,72.00
2023-03-29T11:14:56.353Z,73.25
2023-03-29T11:17:54.713Z,74.37
2023-03-29T11:21:11.644Z,72.80
2023-03-29T11:24:09.891Z,70.54
2023-03-29T11:26:40.843Z,73.65
2023-03-29T11:29:50.128Z,74.73
2023-03-29T11:32:54.430Z,72.71
2023-03-29T11:35:24.552Z,71.98
2023-03-29T11:37:58.366Z,71.86
2023-03-29T11:40:57.053Z,72.19
2023-03-29T11:43:41.334Z,72.83
2023-03-29T11:46:21.977Z,74.18
2023-03-29T11:49:16.565Z,74.39
2023-03-29T11:52:06.012Z,74.84
2023-03-29T11:54:58.509Z,75.56
2023-03-29T11:57:53.826Z,75.08
2023-03-29T12:00:29.657Z,73.47
2023-03-29T12:03:32.210Z,75.11
2023-03-29T12:06:16.593Z,72.85
2023-03-29T12:09:02.341Z,72.58
2023-03-29T12:11:52.678Z,65.95
2023-03-29T12:14:38.691Z,68.87
2023-03-29T12:17:12.461Z,68.26
2023-03-29T12:19:55.438Z,68.92
2023-03-29T12:22:23.040Z,68.42
2023-03-29T12:24:54.504Z,68.87
2023-03-29T12:28:05.479Z,68.62
2023-03-29T12:30:46.331Z,65.10
2023-03-29T12:33:35.009Z,66.98
2023-03-29T12:36:47.840Z,68.43
2023-03-29T12:39:35.867Z,69.82
2023-03-29T12:42:23.710Z,69.02
2023-03-29T12:45:38.636Z,67.31
2023-03-29T12:48:07.599Z,67.71
2023-03-29T12:50:52.752Z,69.95
2023-03-29T12:53:30.411Z,68.90
2023-03-29T12:56:03.840Z,67.74
2023-03-29T12:58:39.976Z,67.79
2023-03-29T13:01:22.422Z,69.19
2023-03-29T13:04:12.034Z,68.38
2023-03-29T13:07:03.322Z,66.19
2023-03-29T13:09:47.636Z,65.38
2023-03-29T13:12:39.328Z,66.11
2023-03-29T13:15:25.860Z,66.38
2023-03-29T13:18:32.118Z,64.71
2023-03-29T13:21:50.211Z,64.39
2023-03-29T13:24:41.891Z,67.19
2023-03-29T13:27:36.216Z,67.66
2023-03-29T13:30:15.396Z,67.35
2023-03-29T13:33:05.173Z,68.46
2023-03-29T13:35:39.344Z,67.35
2023-03-29T13:38:31.638Z,66.25
2023-03-29T13:41:01.479Z,64.89
2023-03-29T13:43:54.858Z,67.04
2023-03-29T13:46:40.769Z,67.50
2023-03-29T13:49:26.292Z,64.85
2023-03-29T13:51:53.137Z,66.11
2023-03-29T13:54:49.130Z,65.74
2023-03-29T13:57:19.798Z,64.75
2023-03-29T13:59:53.694Z,61.68
2023-03-29T14:02:38.379Z,65.21
2023-03-29T14:05:09.495Z,63.12
2023-03-29T14:07:41.473Z,63.24
2023-03-29T14:10:13.681Z,63.44
2023-03-29T14:12:42.207Z,62.73
2023-03-29T14:15:25.521Z,64.22
2023-03-29T14:18:00.306Z,64.51
2023-03-29T14:20:29.837Z,64.63
2023-03-29T14:22:56.789Z,62.62
2023-03-29T14:25:25.403Z,60.52
2023-03-29T14:27:52.341Z,61.28
2023-03-29T14:30:27.740Z,62.52
2023-03-29T14:32:56.641Z,60.43
2023-03-29T14:35:33.030Z,62.17
2023-03-29T14:38:02.114Z,60.95
2023-03-29T14:40:31.413Z,62.25
2023-03-29T14:43:05.276Z,61.16
2023-03-29T14:45:32.447Z,61.35
2023-03-29T14:48:00.480Z,61.78
2023-03-29T14:50:30.844Z,62.22
2023-03-29T14:53:00.021Z,62.13
2023-03-29T14:55:27.618Z,62.77
2023-03-29T14:57:55.848Z,62.21
2023-03-29T15:00:28.582Z,63.43
2023-03-29T15:02:59.678Z,63.06
2023-03-29T15:05:40.989Z,63.19
2023-03-29T15:08:15.314Z,63.42
2023-03-29T15:10:44.739Z,63.83
2023-03-29T15:13:20.275Z,63.59
2023-03-29T15:15:50.901Z,64.19
2023-03-29T15:18:22.858Z,64.04
2023-03-29T15:20:51.308Z,63.61
2023-03-29T15:23:23.452Z,63.79
2023-03-29T15:25:58.764Z,64.02
2023-03-29T15:28:32.878Z,64.13
2023-03-29T15:31:09.761Z,64.48
2023-03-29T15:33:40.334Z,64.09
2023-03-29T15:36:09.463Z,63.87
2023-03-29T15:38:43.809Z,64.63
2023-03-29T15:41:13.881Z,64.80
2023-03-29T15:43:41.676Z,64.02
2023-03-29T15:46:11.612Z,64.83
2023-03-29T15:48:38.776Z,65.28
2023-03-29T15:51:06.998Z,65.12
2023-03-29T15:53:35.706Z,64.90
2023-03-29T15:56:07.091Z,65.27
2023-03-29T15:58:35.355Z,65.68
2023-03-29T16:01:37.255Z,65.39
2023-03-29T16:04:07.845Z,65.52
2023-03-29T16:06:35.016Z,65.65
2023-03-29T16:09:02.840Z,64.87
2023-03-29T16:11:29.954Z,65.10
2023-03-29T16:13:57.170Z,64.94
2023-03-29T16:16:24.939Z,65.14
2023-03-29T16:18:52.081Z,65.04
2023-03-29T16:21:22.148Z,65.09
2023-03-29T16:23:49.123Z,65.42
2023-03-29T16:26:16.944Z,65.69
2023-03-29T16:28:44.153Z,65.22
2023-03-29T16:31:14.830Z,65.12
2023-03-29T16:33:42.199Z,65.33
2023-03-29T16:36:10.599Z,65.49
2023-03-29T16:38:37.602Z,65.20
2023-03-29T16:41:04.843Z,65.22
2023-03-29T16:43:32.366Z,65.42
2023-03-29T16:45:59.388Z,65.40
2023-03-29T16:48:27.020Z,64.13
2023-03-29T16:50:54.177Z,65.31
2023-03-29T16:53:21.692Z,64.69
2023-03-29T16:55:49.513Z,65.12
2023-03-29T16:58:16.508Z,65.06
2023-03-29T17:00:46.387Z,65.35
2023-03-29T17:03:14.445Z,64.43
2023-03-29T17:05:51.782Z,63.36
2023-03-29T17:08:21.415Z,64.51
2023-03-29T17:10:55.542Z,64.32
2023-03-29T17:13:23.959Z,64.16
2023-03-29T17:15:52.790Z,64.44
2023-03-29T17:18:25.503Z,63.89
2023-03-29T17:20:56.577Z,63.82
2023-03-29T17:23:23.855Z,64.16
2023-03-29T17:25:51.213Z,62.74
2023-03-29T17:28:18.162Z,63.23
2023-03-29T17:30:48.731Z,62.79
2023-03-29T17:33:15.729Z,62.32
2023-03-29T17:35:44.305Z,62.16
2023-03-29T17:38:12.249Z,61.63
2023-03-29T17:40:39.312Z,62.62
2023-03-29T17:43:06.409Z,61.74
2023-03-29T17:45:35.190Z,61.97
2023-03-29T17:48:04.739Z,60.04
2023-03-29T17:50:33.276Z,61.76
2023-03-29T17:53:00.197Z,60.96
2023-03-29T17:55:27.375Z,60.50
2023-03-29T17:57:54.357Z,60.28
2023-03-29T18:00:21.645Z,60.06
2023-03-29T18:02:48.735Z,60.57
2023-03-29T18:05:16.017Z,60.53
2023-03-29T18:07:42.940Z,60.17
2023-03-29T18:10:10.826Z,60.89
2023-03-29T18:12:37.972Z,59.84
2023-03-29T18:15:06.263Z,60.40
2023-03-29T18:17:35.497Z,60.16
2023-03-29T18:20:09.367Z,60.23
2023-03-29T18:22:36.586Z,60.07
2023-03-29T18:25:05.506Z,59.69
2023-03-29T18:27:32.667Z,59.97
2023-03-29T18:30:00.006Z,60.25
2023-03-29T18:32:27.106Z,60.38
2023-03-29T18:34:54.085Z,60.79
2023-03-29T18:37:21.027Z,60.66
2023-03-29T18:39:48.069Z,60.93
2023-03-29T18:42:15.379Z,60.47
2023-03-29T18:44:42.393Z,60.76
2023-03-29T18:47:09.525Z,61.01
2023-03-29T18:49:36.584Z,61.32
2023-03-29T18:52:04.756Z,61.71
2023-03-29T18:54:31.805Z,61.74
2023-03-29T18:57:00.279Z,61.54
2023-03-29T18:59:27.375Z,61.32
2023-03-29T19:01:54.411Z,61.41
2023-03-29T19:04:21.448Z,60.80
2023-03-29T19:06:49.247Z,60.37
2023-03-29T19:09:16.243Z,60.77
2023-03-29T19:11:43.592Z,61.56
2023-03-29T19:14:11.050Z,61.08
2023-03-29T19:16:39.763Z,61.17
2023-03-29T19:19:08.203Z,60.76
2023-03-29T19:21:35.197Z,60.96
2023-03-29T19:24:04.896Z,61.09
2023-03-29T19:26:33.286Z,60.63
2023-03-29T19:29:01.013Z,60.71
2023-03-29T19:31:28.422Z,60.62
2023-03-29T19:33:55.742Z,60.80
2023-03-29T19:36:22.920Z,60.18
2023-03-29T19:38:50.022Z,60.46
2023-03-29T19:41:17.039Z,60.69
2023-03-29T19:43:44.051Z,60.61
2023-03-29T19:46:12.798Z,61.33
2023-03-29T19:48:40.233Z,60.90
2023-03-29T19:51:07.904Z,60.88
2023-03-29T19:53:38.516Z,60.52
2023-03-29T19:56:07.854Z,60.58
2023-03-29T19:58:35.467Z,61.15
2023-03-29T20:01:03.774Z,60.74
2023-03-29T20:03:33.830Z,60.93
2023-03-29T20:06:01.166Z,61.32
2023-03-29T20:08:28.158Z,61.47
2023-03-29T20:11:09.928Z,60.76
2023-03-29T20:13:45.163Z,60.98
2023-03-29T20:16:18.054Z,61.26
2023-03-29T20:18:45.638Z,61.63
2023-03-29T20:21:16.229Z,61.64
2023-03-29T20:23:43.328Z,61.90
2023-03-29T20:26:10.930Z,61.67
2023-03-29T20:28:38.025Z,61.62
2023-03-29T20:31:10.397Z,61.67
2023-03-29T20:33:38.623Z,62.09
2023-03-29T20:36:06.606Z,60.88
2023-03-29T20:38:35.225Z,61.20
2023-03-29T20:41:04.180Z,60.90
2023-03-29T20:43:37.192Z,61.52
2023-03-29T20:46:05.936Z,60.96
2023-03-29T20:48:32.910Z,61.33
2023-03-29T20:53:34.069Z,60.54
2023-03-29T20:56:01.023Z,59.65
2023-03-29T20:58:29.063Z,60.86
2023-03-29T21:00:58.817Z,60.39
2023-03-29T21:03:26.137Z,60.37
2023-03-29T21:05:58.182Z,60.13
2023-03-29T21:08:28.447Z,59.72
2023-03-29T21:10:56.288Z,59.65
2023-03-29T21:13:23.949Z,60.14
2023-03-29T21:15:51.154Z,59.04
2023-03-29T21:18:18.364Z,59.27
2023-03-29T21:20:45.308Z,59.48
2023-03-29T21:23:13.333Z,58.39
2023-03-29T21:25:40.567Z,58.86
2023-03-29T21:28:07.559Z,58.40
2023-03-29T21:30:34.537Z,58.04
2023-03-29T21:33:01.888Z,58.61
2023-03-29T21:35:28.889Z,58.13
2023-03-29T21:37:55.939Z,58.08
2023-03-29T21:40:22.988Z,57.44
2023-03-29T21:42:50.255Z,57.87
2023-03-29T21:45:17.345Z,58.12
2023-03-29T21:47:44.605Z,57.69
2023-03-29T21:50:11.757Z,56.69
2023-03-29T21:52:38.743Z,57.08
2023-03-29T21:55:06.461Z,57.07
2023-03-29T21:57:34.137Z,57.37
2023-03-29T22:00:01.120Z,58.02
2023-03-29T22:02:28.110Z,56.83
2023-03-29T22:04:55.553Z,56.13
2023-03-29T22:07:26.423Z,56.67
2023-03-29T22:09:54.610Z,56.16
2023-03-29T22:12:22.658Z,56.98
2023-03-29T22:14:49.577Z,57.27
2023-03-29T22:17:16.540Z,56.51
2023-03-29T22:19:43.472Z,56.96
2023-03-29T22:22:13.734Z,56.56
2023-03-29T22:24:41.872Z,57.65
2023-03-29T22:27:09.688Z,57.29
2023-03-29T22:29:36.706Z,57.47
2023-03-29T22:32:03.737Z,57.19
2023-03-29T22:34:30.772Z,57.93
2023-03-29T22:36:57.724Z,57.78
2023-03-29T22:39:24.678Z,57.76
2023-03-29T22:41:51.633Z,57.53
2023-03-29T22:44:18.550Z,57.31
2023-03-29T22:46:45.501Z,57.69
2023-03-29T22:49:12.818Z,57.24
2023-03-29T22:51:39.744Z,57.48
2023-03-29T22:54:06.757Z,57.57
2023-03-29T22:56:33.922Z,57.86
2023-03-29T22:59:01.138Z,57.51
2023-03-29T23:01:28.101Z,57.69
2023-03-29T23:03:55.325Z,57.72
2023-03-29T23:06:22.346Z,58.29
2023-03-29T23:08:49.271Z,58.38
2023-03-29T23:11:16.258Z,59.01
2023-03-29T23:13:43.307Z,58.95
2023-03-29T23:16:10.347Z,59.25
2023-03-29T23:18:38.752Z,59.29
2023-03-29T23:21:06.529Z,59.46
2023-03-29T23:23:33.906Z,59.97
2023-03-29T23:26:01.876Z,60.18
2023-03-29T23:28:30.513Z,60.17
2023-03-29T23:31:02.902Z,60.21
2023-03-29T23:33:34.924Z,59.76
2023-03-29T23:36:04.882Z,59.67
2023-03-29T23:38:34.141Z,59.87
2023-03-29T23:41:03.416Z,59.38
2023-03-29T23:43:34.294Z,59.70
2023-03-29T23:46:08.712Z,59.29
2023-03-29T23:48:35.755Z,59.88
2023-03-29T23:51:03.603Z,60.65
2023-03-29T23:53:31.997Z,60.51
2023-03-29T23:56:04.963Z,60.34
2023-03-29T23:58:35.840Z,61.08
